sensor_id;sensor_type;location;lat;lon;timestamp;temperature;humidity
8313;DHT22;4194;43.408;24.626;2022-08-19T00:01:39;25.30;79.30
8313;DHT22;4194;43.408;24.626;2022-08-19T00:04:09;26.10;80.30
8313;DHT22;4194;43.408;24.626;2022-08-19T00:06:36;26.50;80.40
8313;DHT22;4194;43.408;24.626;2022-08-19T00:09:04;26.20;80.60
8313;DHT22;4194;43.408;24.626;2022-08-19T00:11:31;26.10;80.60
8313;DHT22;4194;43.408;24.626;2022-08-19T00:13:57;25.90;80.70
8313;DHT22;4194;43.408;24.626;2022-08-19T00:18:50;25.50;79.80
8313;DHT22;4194;43.408;24.626;2022-08-19T00:21:16;26.30;80.70
8313;DHT22;4194;43.408;24.626;2022-08-19T00:23:42;24.70;80.90
8313;DHT22;4194;43.408;24.626;2022-08-19T00:26:09;25.30;81.30
8313;DHT22;4194;43.408;24.626;2022-08-19T00:28:35;26.50;82.00
8313;DHT22;4194;43.408;24.626;2022-08-19T00:33:29;25.80;82.30
8313;DHT22;4194;43.408;24.626;2022-08-19T00:36:02;25.00;82.00
8313;DHT22;4194;43.408;24.626;2022-08-19T00:38:30;25.10;82.90
8313;DHT22;4194;43.408;24.626;2022-08-19T00:45:49;26.20;84.00
8313;DHT22;4194;43.408;24.626;2022-08-19T00:48:17;25.10;83.70
8313;DHT22;4194;43.408;24.626;2022-08-19T00:50:44;26.10;84.00
8313;DHT22;4194;43.408;24.626;2022-08-19T00:53:15;26.30;84.80
8313;DHT22;4194;43.408;24.626;2022-08-19T00:55:45;26.10;84.80
8313;DHT22;4194;43.408;24.626;2022-08-19T00:58:15;23.40;82.80
8313;DHT22;4194;43.408;24.626;2022-08-19T01:00:43;25.70;85.30
8313;DHT22;4194;43.408;24.626;2022-08-19T01:03:15;24.90;85.70
8313;DHT22;4194;43.408;24.626;2022-08-19T01:05:42;26.00;86.10
8313;DHT22;4194;43.408;24.626;2022-08-19T01:08:09;26.00;85.90
8313;DHT22;4194;43.408;24.626;2022-08-19T01:11:02;24.80;86.50
8313;DHT22;4194;43.408;24.626;2022-08-19T01:13:33;24.80;86.90
8313;DHT22;4194;43.408;24.626;2022-08-19T01:18:32;25.30;87.60
8313;DHT22;4194;43.408;24.626;2022-08-19T01:21:05;24.60;88.20
8313;DHT22;4194;43.408;24.626;2022-08-19T01:23:33;23.30;86.70
8313;DHT22;4194;43.408;24.626;2022-08-19T01:26:14;25.00;88.90
8313;DHT22;4194;43.408;24.626;2022-08-19T01:31:10;25.50;88.50
8313;DHT22;4194;43.408;24.626;2022-08-19T01:33:37;23.70;86.80
8313;DHT22;4194;43.408;24.626;2022-08-19T01:36:09;24.40;88.50
8313;DHT22;4194;43.408;24.626;2022-08-19T01:38:39;24.50;89.60
8313;DHT22;4194;43.408;24.626;2022-08-19T01:45:58;25.70;90.30
8313;DHT22;4194;43.408;24.626;2022-08-19T01:48:23;22.80;88.60
8313;DHT22;4194;43.408;24.626;2022-08-19T01:50:49;24.00;90.10
8313;DHT22;4194;43.408;24.626;2022-08-19T01:58:24;24.60;91.50
8313;DHT22;4194;43.408;24.626;2022-08-19T02:00:51;23.70;90.90
8313;DHT22;4194;43.408;24.626;2022-08-19T02:03:17;25.70;92.00
8313;DHT22;4194;43.408;24.626;2022-08-19T02:05:43;22.40;90.70
8313;DHT22;4194;43.408;24.626;2022-08-19T02:10:40;22.70;91.60
8313;DHT22;4194;43.408;24.626;2022-08-19T02:13:06;23.70;92.50
8313;DHT22;4194;43.408;24.626;2022-08-19T02:15:32;25.20;93.50
8313;DHT22;4194;43.408;24.626;2022-08-19T02:17:57;25.70;94.00
8313;DHT22;4194;43.408;24.626;2022-08-19T02:20:23;22.90;93.00
8313;DHT22;4194;43.408;24.626;2022-08-19T02:25:16;22.90;92.80
8313;DHT22;4194;43.408;24.626;2022-08-19T02:27:42;23.70;93.70
8313;DHT22;4194;43.408;24.626;2022-08-19T02:30:11;25.40;94.70
8313;DHT22;4194;43.408;24.626;2022-08-19T02:32:38;23.60;94.20
8313;DHT22;4194;43.408;24.626;2022-08-19T02:35:05;22.60;94.00
8313;DHT22;4194;43.408;24.626;2022-08-19T02:37:31;23.50;94.50
8313;DHT22;4194;43.408;24.626;2022-08-19T02:40:15;23.70;95.10
8313;DHT22;4194;43.408;24.626;2022-08-19T02:45:09;22.70;95.60
8313;DHT22;4194;43.408;24.626;2022-08-19T02:52:28;23.50;96.90
8313;DHT22;4194;43.408;24.626;2022-08-19T02:57:23;23.50;97.10
8313;DHT22;4194;43.408;24.626;2022-08-19T02:59:49;22.50;96.20
8313;DHT22;4194;43.408;24.626;2022-08-19T03:02:15;22.60;96.40
8313;DHT22;4194;43.408;24.626;2022-08-19T03:07:08;23.80;97.60
8313;DHT22;4194;43.408;24.626;2022-08-19T03:12:04;24.40;97.60
8313;DHT22;4194;43.408;24.626;2022-08-19T03:16:56;22.40;96.90
8313;DHT22;4194;43.408;24.626;2022-08-19T03:19:23;22.50;97.20
8313;DHT22;4194;43.408;24.626;2022-08-19T03:21:49;22.40;97.40
8313;DHT22;4194;43.408;24.626;2022-08-19T03:26:48;23.50;98.50
8313;DHT22;4194;43.408;24.626;2022-08-19T03:31:43;23.30;99.10
8313;DHT22;4194;43.408;24.626;2022-08-19T03:34:15;23.00;98.80
8313;DHT22;4194;43.408;24.626;2022-08-19T03:36:43;23.30;99.50
8313;DHT22;4194;43.408;24.626;2022-08-19T03:39:10;23.00;99.10
8313;DHT22;4194;43.408;24.626;2022-08-19T03:41:38;23.10;99.50
8313;DHT22;4194;43.408;24.626;2022-08-19T03:44:05;22.20;99.00
8313;DHT22;4194;43.408;24.626;2022-08-19T03:46:32;23.50;99.40
8313;DHT22;4194;43.408;24.626;2022-08-19T03:49:01;22.20;99.00
8313;DHT22;4194;43.408;24.626;2022-08-19T03:53:59;22.70;99.90
8313;DHT22;4194;43.408;24.626;2022-08-19T03:56:27;23.10;99.90
8313;DHT22;4194;43.408;24.626;2022-08-19T03:58:57;23.00;99.90
8313;DHT22;4194;43.408;24.626;2022-08-19T04:01:25;23.20;99.90
8313;DHT22;4194;43.408;24.626;2022-08-19T04:03:57;23.60;99.90
8313;DHT22;4194;43.408;24.626;2022-08-19T04:06:27;23.10;99.90
8313;DHT22;4194;43.408;24.626;2022-08-19T04:11:23;25.20;99.90
8313;DHT22;4194;43.408;24.626;2022-08-19T04:13:51;23.80;99.90
8313;DHT22;4194;43.408;24.626;2022-08-19T04:16:19;22.50;99.90
8313;DHT22;4194;43.408;24.626;2022-08-19T04:21:20;23.20;99.90
8313;DHT22;4194;43.408;24.626;2022-08-19T04:23:46;22.40;99.90
8313;DHT22;4194;43.408;24.626;2022-08-19T04:28:44;22.70;99.90
8313;DHT22;4194;43.408;24.626;2022-08-19T04:31:19;22.60;99.90
8313;DHT22;4194;43.408;24.626;2022-08-19T04:33:46;22.80;99.90
8313;DHT22;4194;43.408;24.626;2022-08-19T04:36:18;23.70;99.90
8313;DHT22;4194;43.408;24.626;2022-08-19T04:38:44;22.40;99.90
8313;DHT22;4194;43.408;24.626;2022-08-19T04:41:10;22.70;99.90
8313;DHT22;4194;43.408;24.626;2022-08-19T04:43:54;23.90;99.90
8313;DHT22;4194;43.408;24.626;2022-08-19T04:48:46;25.50;99.70
8313;DHT22;4194;43.408;24.626;2022-08-19T04:51:12;23.00;98.70
8313;DHT22;4194;43.408;24.626;2022-08-19T04:53:40;25.90;99.90
8313;DHT22;4194;43.408;24.626;2022-08-19T04:56:09;24.60;99.40
8313;DHT22;4194;43.408;24.626;2022-08-19T04:58:36;25.00;99.30
8313;DHT22;4194;43.408;24.626;2022-08-19T05:01:03;25.60;98.60
8313;DHT22;4194;43.408;24.626;2022-08-19T05:05:58;26.00;98.50
8313;DHT22;4194;43.408;24.626;2022-08-19T05:08:23;26.10;98.10
8313;DHT22;4194;43.408;24.626;2022-08-19T05:13:18;26.40;96.90
8313;DHT22;4194;43.408;24.626;2022-08-19T05:15:45;26.90;96.70
8313;DHT22;4194;43.408;24.626;2022-08-19T05:18:18;25.90;96.00
8313;DHT22;4194;43.408;24.626;2022-08-19T05:21:06;26.30;95.60
8313;DHT22;4194;43.408;24.626;2022-08-19T05:23:51;25.70;94.40
8313;DHT22;4194;43.408;24.626;2022-08-19T05:26:16;26.80;94.20
8313;DHT22;4194;43.408;24.626;2022-08-19T05:33:34;26.60;92.30
8313;DHT22;4194;43.408;24.626;2022-08-19T05:36:02;27.40;91.60
8313;DHT22;4194;43.408;24.626;2022-08-19T05:38:28;29.10;91.90
8313;DHT22;4194;43.408;24.626;2022-08-19T05:40:55;27.40;90.50
8313;DHT22;4194;43.408;24.626;2022-08-19T05:43:21;25.80;88.10
8313;DHT22;4194;43.408;24.626;2022-08-19T05:45:46;28.90;87.90
8313;DHT22;4194;43.408;24.626;2022-08-19T05:50:41;28.30;86.00
8313;DHT22;4194;43.408;24.626;2022-08-19T05:53:07;29.40;84.60
8313;DHT22;4194;43.408;24.626;2022-08-19T05:55:34;28.30;82.20
8313;DHT22;4194;43.408;24.626;2022-08-19T05:58:00;30.10;82.80
8313;DHT22;4194;43.408;24.626;2022-08-19T06:00:27;26.60;78.80
8313;DHT22;4194;43.408;24.626;2022-08-19T06:02:53;29.70;80.50
8313;DHT22;4194;43.408;24.626;2022-08-19T06:05:27;28.70;78.70
8313;DHT22;4194;43.408;24.626;2022-08-19T06:10:20;29.40;77.10
8313;DHT22;4194;43.408;24.626;2022-08-19T06:12:47;28.50;76.10
8313;DHT22;4194;43.408;24.626;2022-08-19T06:15:14;29.30;76.50
8313;DHT22;4194;43.408;24.626;2022-08-19T06:25:06;30.70;73.80
8313;DHT22;4194;43.408;24.626;2022-08-19T06:27:32;28.50;71.40
8313;DHT22;4194;43.408;24.626;2022-08-19T06:29:58;29.00;70.80
8313;DHT22;4194;43.408;24.626;2022-08-19T06:34:50;30.00;71.40
8313;DHT22;4194;43.408;24.626;2022-08-19T06:37:16;30.40;71.00
8313;DHT22;4194;43.408;24.626;2022-08-19T06:39:43;28.40;68.20
8313;DHT22;4194;43.408;24.626;2022-08-19T06:44:42;30.40;68.70
8313;DHT22;4194;43.408;24.626;2022-08-19T06:47:11;31.00;69.00
8313;DHT22;4194;43.408;24.626;2022-08-19T06:49:37;30.40;67.40
8313;DHT22;4194;43.408;24.626;2022-08-19T06:52:04;31.00;68.00
8313;DHT22;4194;43.408;24.626;2022-08-19T06:54:30;31.20;67.50
8313;DHT22;4194;43.408;24.626;2022-08-19T06:56:57;30.20;66.40
8313;DHT22;4194;43.408;24.626;2022-08-19T06:59:24;31.00;65.80
8313;DHT22;4194;43.408;24.626;2022-08-19T07:01:55;32.50;66.90
8313;DHT22;4194;43.408;24.626;2022-08-19T07:09:23;32.10;66.30
8313;DHT22;4194;43.408;24.626;2022-08-19T07:11:51;33.30;66.90
8313;DHT22;4194;43.408;24.626;2022-08-19T07:14:19;31.30;65.00
8313;DHT22;4194;43.408;24.626;2022-08-19T07:16:47;31.10;62.50
8313;DHT22;4194;43.408;24.626;2022-08-19T07:19:13;31.50;63.10
8313;DHT22;4194;43.408;24.626;2022-08-19T07:21:40;33.30;64.10
8313;DHT22;4194;43.408;24.626;2022-08-19T07:24:07;31.30;62.20
8313;DHT22;4194;43.408;24.626;2022-08-19T07:26:38;31.80;63.00
8313;DHT22;4194;43.408;24.626;2022-08-19T07:29:30;32.00;63.80
8313;DHT22;4194;43.408;24.626;2022-08-19T07:31:59;32.10;61.70
8313;DHT22;4194;43.408;24.626;2022-08-19T07:34:27;32.20;61.60
8313;DHT22;4194;43.408;24.626;2022-08-19T07:36:53;32.50;61.50
8313;DHT22;4194;43.408;24.626;2022-08-19T07:39:25;32.30;60.20
8313;DHT22;4194;43.408;24.626;2022-08-19T07:41:52;31.90;58.80
8313;DHT22;4194;43.408;24.626;2022-08-19T07:44:19;33.70;60.20
8313;DHT22;4194;43.408;24.626;2022-08-19T07:46:51;34.40;60.70
8313;DHT22;4194;43.408;24.626;2022-08-19T07:49:18;32.00;59.20
8313;DHT22;4194;43.408;24.626;2022-08-19T07:52:06;32.80;60.60
8313;DHT22;4194;43.408;24.626;2022-08-19T07:57:17;33.40;58.60
8313;DHT22;4194;43.408;24.626;2022-08-19T07:59:44;33.90;58.90
8313;DHT22;4194;43.408;24.626;2022-08-19T08:02:10;31.10;56.40
8313;DHT22;4194;43.408;24.626;2022-08-19T08:04:35;31.70;57.20
8313;DHT22;4194;43.408;24.626;2022-08-19T08:07:20;34.70;58.80
8313;DHT22;4194;43.408;24.626;2022-08-19T08:10:06;34.70;56.70
8313;DHT22;4194;43.408;24.626;2022-08-19T08:12:37;32.40;55.80
8313;DHT22;4194;43.408;24.626;2022-08-19T08:15:13;31.50;55.10
8313;DHT22;4194;43.408;24.626;2022-08-19T08:20:08;34.90;57.20
8313;DHT22;4194;43.408;24.626;2022-08-19T08:22:34;35.10;57.10
8313;DHT22;4194;43.408;24.626;2022-08-19T08:25:21;34.80;56.90
8313;DHT22;4194;43.408;24.626;2022-08-19T08:27:48;32.30;54.00
8313;DHT22;4194;43.408;24.626;2022-08-19T08:30:28;33.40;54.20
8313;DHT22;4194;43.408;24.626;2022-08-19T08:32:53;34.90;55.70
8313;DHT22;4194;43.408;24.626;2022-08-19T08:35:22;34.00;55.50
8313;DHT22;4194;43.408;24.626;2022-08-19T08:37:50;34.30;54.60
8313;DHT22;4194;43.408;24.626;2022-08-19T08:41:04;33.90;54.70
8313;DHT22;4194;43.408;24.626;2022-08-19T08:46:11;35.80;53.60
8313;DHT22;4194;43.408;24.626;2022-08-19T08:51:19;35.60;52.50
8313;DHT22;4194;43.408;24.626;2022-08-19T08:53:49;35.50;52.70
8313;DHT22;4194;43.408;24.626;2022-08-19T08:56:16;36.10;54.10
8313;DHT22;4194;43.408;24.626;2022-08-19T08:59:07;34.80;52.60
8313;DHT22;4194;43.408;24.626;2022-08-19T09:01:35;34.80;51.50
8313;DHT22;4194;43.408;24.626;2022-08-19T09:04:06;35.00;52.90
8313;DHT22;4194;43.408;24.626;2022-08-19T09:14:58;35.50;51.80
8313;DHT22;4194;43.408;24.626;2022-08-19T09:17:29;35.50;50.60
8313;DHT22;4194;43.408;24.626;2022-08-19T09:20:20;35.50;51.30
8313;DHT22;4194;43.408;24.626;2022-08-19T09:22:46;35.10;49.10
8313;DHT22;4194;43.408;24.626;2022-08-19T09:25:16;35.20;49.80
8313;DHT22;4194;43.408;24.626;2022-08-19T09:27:43;35.00;49.90
8313;DHT22;4194;43.408;24.626;2022-08-19T09:30:13;35.40;50.20
8313;DHT22;4194;43.408;24.626;2022-08-19T09:32:39;34.90;50.20
8313;DHT22;4194;43.408;24.626;2022-08-19T09:35:07;35.50;50.70
8313;DHT22;4194;43.408;24.626;2022-08-19T09:37:33;35.30;50.30
8313;DHT22;4194;43.408;24.626;2022-08-19T09:39:59;35.50;49.90
8313;DHT22;4194;43.408;24.626;2022-08-19T09:42:24;35.70;50.80
8313;DHT22;4194;43.408;24.626;2022-08-19T09:44:50;36.20;50.20
8313;DHT22;4194;43.408;24.626;2022-08-19T09:49:41;35.10;49.10
8313;DHT22;4194;43.408;24.626;2022-08-19T09:52:11;35.90;48.70
8313;DHT22;4194;43.408;24.626;2022-08-19T09:54:38;35.70;48.80
8313;DHT22;4194;43.408;24.626;2022-08-19T10:01:57;35.70;48.80
8313;DHT22;4194;43.408;24.626;2022-08-19T10:04:22;35.30;48.80
8313;DHT22;4194;43.408;24.626;2022-08-19T10:06:49;34.70;48.80
8313;DHT22;4194;43.408;24.626;2022-08-19T10:11:45;35.80;49.60
8313;DHT22;4194;43.408;24.626;2022-08-19T10:14:15;35.30;48.20
8313;DHT22;4194;43.408;24.626;2022-08-19T10:16:42;36.80;47.60
8313;DHT22;4194;43.408;24.626;2022-08-19T10:19:08;37.30;48.10
8313;DHT22;4194;43.408;24.626;2022-08-19T10:24:04;37.60;47.80
8313;DHT22;4194;43.408;24.626;2022-08-19T10:26:36;37.40;46.90
8313;DHT22;4194;43.408;24.626;2022-08-19T10:29:04;37.50;47.90
8313;DHT22;4194;43.408;24.626;2022-08-19T10:36:29;38.60;44.90
8313;DHT22;4194;43.408;24.626;2022-08-19T10:38:59;39.20;44.10
8313;DHT22;4194;43.408;24.626;2022-08-19T10:41:29;40.20;43.40
8313;DHT22;4194;43.408;24.626;2022-08-19T10:43:57;38.70;41.20
8313;DHT22;4194;43.408;24.626;2022-08-19T10:46:25;40.70;41.20
8313;DHT22;4194;43.408;24.626;2022-08-19T10:48:51;42.50;42.50
8313;DHT22;4194;43.408;24.626;2022-08-19T10:51:17;41.00;41.10
8313;DHT22;4194;43.408;24.626;2022-08-19T10:54:03;41.60;39.40
8313;DHT22;4194;43.408;24.626;2022-08-19T10:56:29;40.60;38.70
8313;DHT22;4194;43.408;24.626;2022-08-19T11:01:42;42.00;38.80
8313;DHT22;4194;43.408;24.626;2022-08-19T11:04:08;41.20;37.40
8313;DHT22;4194;43.408;24.626;2022-08-19T11:06:39;42.60;37.80
8313;DHT22;4194;43.408;24.626;2022-08-19T11:09:06;41.30;36.40
8313;DHT22;4194;43.408;24.626;2022-08-19T11:11:32;41.00;37.80
8313;DHT22;4194;43.408;24.626;2022-08-19T11:13:58;40.60;37.90
8313;DHT22;4194;43.408;24.626;2022-08-19T11:16:25;41.10;38.40
8313;DHT22;4194;43.408;24.626;2022-08-19T11:18:54;41.20;38.30
8313;DHT22;4194;43.408;24.626;2022-08-19T11:21:33;43.80;40.40
8313;DHT22;4194;43.408;24.626;2022-08-19T11:24:08;41.40;39.60
8313;DHT22;4194;43.408;24.626;2022-08-19T11:26:34;41.00;40.00
8313;DHT22;4194;43.408;24.626;2022-08-19T11:29:01;41.10;41.50
8313;DHT22;4194;43.408;24.626;2022-08-19T11:31:29;40.50;40.00
8313;DHT22;4194;43.408;24.626;2022-08-19T11:34:00;41.10;38.50
8313;DHT22;4194;43.408;24.626;2022-08-19T11:38:54;43.20;37.30
8313;DHT22;4194;43.408;24.626;2022-08-19T11:41:21;43.60;36.70
8313;DHT22;4194;43.408;24.626;2022-08-19T11:43:48;42.40;35.80
8313;DHT22;4194;43.408;24.626;2022-08-19T11:46:15;44.60;36.10
8313;DHT22;4194;43.408;24.626;2022-08-19T11:48:42;44.70;35.30
8313;DHT22;4194;43.408;24.626;2022-08-19T11:51:12;44.70;35.30
8313;DHT22;4194;43.408;24.626;2022-08-19T11:56:06;43.60;34.60
8313;DHT22;4194;43.408;24.626;2022-08-19T11:58:32;44.90;34.50
8313;DHT22;4194;43.408;24.626;2022-08-19T12:00:58;44.20;34.10
8313;DHT22;4194;43.408;24.626;2022-08-19T12:03:24;44.50;33.20
8313;DHT22;4194;43.408;24.626;2022-08-19T12:05:50;45.60;33.70
8313;DHT22;4194;43.408;24.626;2022-08-19T12:08:17;44.30;33.90
8313;DHT22;4194;43.408;24.626;2022-08-19T12:10:43;44.50;34.20
8313;DHT22;4194;43.408;24.626;2022-08-19T12:13:09;45.10;34.20
8313;DHT22;4194;43.408;24.626;2022-08-19T12:15:37;45.60;33.00
8313;DHT22;4194;43.408;24.626;2022-08-19T12:18:04;45.00;31.80
8313;DHT22;4194;43.408;24.626;2022-08-19T12:20:29;45.90;31.20
8313;DHT22;4194;43.408;24.626;2022-08-19T12:22:55;49.50;33.60
8313;DHT22;4194;43.408;24.626;2022-08-19T12:25:21;45.80;31.30
8313;DHT22;4194;43.408;24.626;2022-08-19T12:27:47;48.30;33.40
8313;DHT22;4194;43.408;24.626;2022-08-19T12:30:13;45.60;31.20
8313;DHT22;4194;43.408;24.626;2022-08-19T12:32:39;47.20;32.50
8313;DHT22;4194;43.408;24.626;2022-08-19T12:35:06;46.30;31.10
8313;DHT22;4194;43.408;24.626;2022-08-19T12:37:33;47.20;31.70
8313;DHT22;4194;43.408;24.626;2022-08-19T12:39:59;46.10;31.60
8313;DHT22;4194;43.408;24.626;2022-08-19T12:44:51;49.90;30.40
8313;DHT22;4194;43.408;24.626;2022-08-19T12:47:17;45.30;29.20
8313;DHT22;4194;43.408;24.626;2022-08-19T12:49:43;47.10;33.80
8313;DHT22;4194;43.408;24.626;2022-08-19T12:52:09;45.20;33.00
8313;DHT22;4194;43.408;24.626;2022-08-19T12:54:36;48.60;33.50
8313;DHT22;4194;43.408;24.626;2022-08-19T12:57:07;49.60;32.80
8313;DHT22;4194;43.408;24.626;2022-08-19T12:59:34;45.50;31.90
8313;DHT22;4194;43.408;24.626;2022-08-19T13:02:02;43.30;33.80
8313;DHT22;4194;43.408;24.626;2022-08-19T13:09:21;41.20;38.30
8313;DHT22;4194;43.408;24.626;2022-08-19T13:11:47;43.70;40.80
8313;DHT22;4194;43.408;24.626;2022-08-19T13:14:13;43.60;36.00
8313;DHT22;4194;43.408;24.626;2022-08-19T13:16:38;43.10;37.80
8313;DHT22;4194;43.408;24.626;2022-08-19T13:19:05;40.80;38.20
8313;DHT22;4194;43.408;24.626;2022-08-19T13:21:33;40.40;40.00
8313;DHT22;4194;43.408;24.626;2022-08-19T13:31:38;43.90;35.70
8313;DHT22;4194;43.408;24.626;2022-08-19T13:34:32;42.80;38.00
8313;DHT22;4194;43.408;24.626;2022-08-19T13:36:59;44.10;35.00
8313;DHT22;4194;43.408;24.626;2022-08-19T13:39:28;45.30;33.20
8313;DHT22;4194;43.408;24.626;2022-08-19T13:41:54;47.30;31.10
8313;DHT22;4194;43.408;24.626;2022-08-19T13:44:20;50.60;30.60
8313;DHT22;4194;43.408;24.626;2022-08-19T13:46:47;50.60;29.50
8313;DHT22;4194;43.408;24.626;2022-08-19T13:49:14;51.50;28.70
8313;DHT22;4194;43.408;24.626;2022-08-19T13:51:42;51.70;27.60
8313;DHT22;4194;43.408;24.626;2022-08-19T13:56:39;52.10;26.90
8313;DHT22;4194;43.408;24.626;2022-08-19T14:01:31;54.00;27.80
8313;DHT22;4194;43.408;24.626;2022-08-19T14:03:56;52.30;26.00
8313;DHT22;4194;43.408;24.626;2022-08-19T14:08:48;54.90;27.10
8313;DHT22;4194;43.408;24.626;2022-08-19T14:13:41;54.80;27.20
8313;DHT22;4194;43.408;24.626;2022-08-19T14:16:12;52.60;25.70
8313;DHT22;4194;43.408;24.626;2022-08-19T14:18:38;53.60;27.10
8313;DHT22;4194;43.408;24.626;2022-08-19T14:21:05;54.20;27.00
8313;DHT22;4194;43.408;24.626;2022-08-19T14:23:33;54.00;27.20
8313;DHT22;4194;43.408;24.626;2022-08-19T14:26:11;52.50;26.80
8313;DHT22;4194;43.408;24.626;2022-08-19T14:28:38;51.50;27.40
8313;DHT22;4194;43.408;24.626;2022-08-19T14:31:06;51.50;27.10
8313;DHT22;4194;43.408;24.626;2022-08-19T14:33:32;52.10;27.00
8313;DHT22;4194;43.408;24.626;2022-08-19T14:38:26;54.50;27.60
8313;DHT22;4194;43.408;24.626;2022-08-19T14:40:51;55.00;26.80
8313;DHT22;4194;43.408;24.626;2022-08-19T14:43:18;55.40;26.00
8313;DHT22;4194;43.408;24.626;2022-08-19T14:45:44;55.40;26.00
8313;DHT22;4194;43.408;24.626;2022-08-19T14:50:36;55.30;26.00
8313;DHT22;4194;43.408;24.626;2022-08-19T14:53:07;55.40;26.40
8313;DHT22;4194;43.408;24.626;2022-08-19T14:55:34;52.90;24.90
8313;DHT22;4194;43.408;24.626;2022-08-19T14:58:00;54.80;26.30
8313;DHT22;4194;43.408;24.626;2022-08-19T15:00:26;54.50;26.80
8313;DHT22;4194;43.408;24.626;2022-08-19T15:02:52;54.20;27.30
8313;DHT22;4194;43.408;24.626;2022-08-19T15:07:46;53.20;26.40
8313;DHT22;4194;43.408;24.626;2022-08-19T15:10:13;54.40;26.70
8313;DHT22;4194;43.408;24.626;2022-08-19T15:12:39;54.00;26.90
8313;DHT22;4194;43.408;24.626;2022-08-19T15:15:07;54.20;27.10
8313;DHT22;4194;43.408;24.626;2022-08-19T15:17:33;53.20;27.20
8313;DHT22;4194;43.408;24.626;2022-08-19T15:24:53;53.10;27.10
8313;DHT22;4194;43.408;24.626;2022-08-19T15:27:19;52.50;26.80
8313;DHT22;4194;43.408;24.626;2022-08-19T15:29:45;52.30;26.60
8313;DHT22;4194;43.408;24.626;2022-08-19T15:32:11;52.50;27.50
8313;DHT22;4194;43.408;24.626;2022-08-19T15:34:36;52.20;26.50
8313;DHT22;4194;43.408;24.626;2022-08-19T15:37:03;51.20;26.90
8313;DHT22;4194;43.408;24.626;2022-08-19T15:39:30;52.10;27.60
8313;DHT22;4194;43.408;24.626;2022-08-19T15:41:56;51.60;27.60
8313;DHT22;4194;43.408;24.626;2022-08-19T15:44:21;50.40;28.30
8313;DHT22;4194;43.408;24.626;2022-08-19T15:49:16;48.40;31.00
8313;DHT22;4194;43.408;24.626;2022-08-19T15:51:44;44.10;32.70
8313;DHT22;4194;43.408;24.626;2022-08-19T15:54:14;43.20;35.10
8313;DHT22;4194;43.408;24.626;2022-08-19T15:56:40;39.70;35.80
8313;DHT22;4194;43.408;24.626;2022-08-19T16:02:10;38.50;39.60
8313;DHT22;4194;43.408;24.626;2022-08-19T16:07:38;39.10;43.20
8313;DHT22;4194;43.408;24.626;2022-08-19T16:10:04;35.20;42.60
8313;DHT22;4194;43.408;24.626;2022-08-19T16:12:30;36.70;43.10
8313;DHT22;4194;43.408;24.626;2022-08-19T16:14:57;35.20;43.40
8313;DHT22;4194;43.408;24.626;2022-08-19T16:17:23;36.20;44.20
8313;DHT22;4194;43.408;24.626;2022-08-19T16:22:16;34.90;43.90
8313;DHT22;4194;43.408;24.626;2022-08-19T16:24:42;34.90;44.50
8313;DHT22;4194;43.408;24.626;2022-08-19T16:27:07;34.10;44.90
8313;DHT22;4194;43.408;24.626;2022-08-19T16:29:34;34.60;45.60
8313;DHT22;4194;43.408;24.626;2022-08-19T16:32:05;34.70;46.70
8313;DHT22;4194;43.408;24.626;2022-08-19T16:34:31;34.50;46.30
8313;DHT22;4194;43.408;24.626;2022-08-19T16:39:23;33.50;47.20
8313;DHT22;4194;43.408;24.626;2022-08-19T16:41:49;34.00;47.80
8313;DHT22;4194;43.408;24.626;2022-08-19T16:44:16;34.80;48.30
8313;DHT22;4194;43.408;24.626;2022-08-19T16:46:45;34.60;48.60
8313;DHT22;4194;43.408;24.626;2022-08-19T16:49:12;34.30;48.70
8313;DHT22;4194;43.408;24.626;2022-08-19T16:51:39;34.20;49.50
8313;DHT22;4194;43.408;24.626;2022-08-19T16:54:06;33.70;49.30
8313;DHT22;4194;43.408;24.626;2022-08-19T16:56:32;33.30;49.90
8313;DHT22;4194;43.408;24.626;2022-08-19T16:58:58;34.70;51.50
8313;DHT22;4194;43.408;24.626;2022-08-19T17:01:27;32.20;50.60
8313;DHT22;4194;43.408;24.626;2022-08-19T17:03:53;32.70;51.50
8313;DHT22;4194;43.408;24.626;2022-08-19T17:06:22;33.90;52.30
8313;DHT22;4194;43.408;24.626;2022-08-19T17:08:52;30.70;51.00
8313;DHT22;4194;43.408;24.626;2022-08-19T17:11:19;32.00;52.10
8313;DHT22;4194;43.408;24.626;2022-08-19T17:13:46;30.90;52.10
8313;DHT22;4194;43.408;24.626;2022-08-19T17:16:12;30.40;52.10
8313;DHT22;4194;43.408;24.626;2022-08-19T17:18:37;31.00;53.20
8313;DHT22;4194;43.408;24.626;2022-08-19T17:21:03;30.90;53.40
8313;DHT22;4194;43.408;24.626;2022-08-19T17:23:29;31.30;54.10
8313;DHT22;4194;43.408;24.626;2022-08-19T17:25:55;30.70;53.90
8313;DHT22;4194;43.408;24.626;2022-08-19T17:30:49;30.70;53.50
8313;DHT22;4194;43.408;24.626;2022-08-19T17:33:15;30.20;54.10
8313;DHT22;4194;43.408;24.626;2022-08-19T17:38:10;30.70;54.70
8313;DHT22;4194;43.408;24.626;2022-08-19T17:40:37;30.90;54.10
8313;DHT22;4194;43.408;24.626;2022-08-19T17:43:05;29.90;54.40
8313;DHT22;4194;43.408;24.626;2022-08-19T17:45:32;29.90;53.90
8313;DHT22;4194;43.408;24.626;2022-08-19T17:47:58;29.80;54.10
8313;DHT22;4194;43.408;24.626;2022-08-19T18:02:47;30.20;55.20
8313;DHT22;4194;43.408;24.626;2022-08-19T18:10:31;30.20;56.30
8313;DHT22;4194;43.408;24.626;2022-08-19T18:12:58;32.00;57.60
8313;DHT22;4194;43.408;24.626;2022-08-19T18:15:25;27.90;54.50
8313;DHT22;4194;43.408;24.626;2022-08-19T18:17:51;30.30;56.50
8313;DHT22;4194;43.408;24.626;2022-08-19T18:20:17;30.10;56.50
8313;DHT22;4194;43.408;24.626;2022-08-19T18:22:47;29.60;56.80
8313;DHT22;4194;43.408;24.626;2022-08-19T18:25:20;29.70;57.10
8313;DHT22;4194;43.408;24.626;2022-08-19T18:27:51;30.70;57.60
8313;DHT22;4194;43.408;24.626;2022-08-19T18:32:45;30.80;57.70
8313;DHT22;4194;43.408;24.626;2022-08-19T18:35:16;30.00;57.20
8313;DHT22;4194;43.408;24.626;2022-08-19T18:37:44;28.90;56.70
8313;DHT22;4194;43.408;24.626;2022-08-19T18:40:15;28.60;56.60
8313;DHT22;4194;43.408;24.626;2022-08-19T18:42:59;27.70;56.10
8313;DHT22;4194;43.408;24.626;2022-08-19T18:48:29;30.60;58.10
8313;DHT22;4194;43.408;24.626;2022-08-19T18:51:15;29.10;57.30
8313;DHT22;4194;43.408;24.626;2022-08-19T18:53:42;30.70;59.20
8313;DHT22;4194;43.408;24.626;2022-08-19T18:56:10;29.00;58.00
8313;DHT22;4194;43.408;24.626;2022-08-19T18:58:39;30.60;59.30
8313;DHT22;4194;43.408;24.626;2022-08-19T19:01:10;28.90;58.50
8313;DHT22;4194;43.408;24.626;2022-08-19T19:03:42;28.80;58.50
8313;DHT22;4194;43.408;24.626;2022-08-19T19:06:16;29.80;59.30
8313;DHT22;4194;43.408;24.626;2022-08-19T19:08:46;28.40;58.60
8313;DHT22;4194;43.408;24.626;2022-08-19T19:11:14;29.10;59.80
8313;DHT22;4194;43.408;24.626;2022-08-19T19:16:11;27.50;58.40
8313;DHT22;4194;43.408;24.626;2022-08-19T19:18:37;30.20;60.40
8313;DHT22;4194;43.408;24.626;2022-08-19T19:21:03;29.20;59.80
8313;DHT22;4194;43.408;24.626;2022-08-19T19:23:29;28.40;59.30
8313;DHT22;4194;43.408;24.626;2022-08-19T19:25:54;28.50;59.90
8313;DHT22;4194;43.408;24.626;2022-08-19T19:38:09;28.80;60.70
8313;DHT22;4194;43.408;24.626;2022-08-19T19:43:00;29.10;60.50
8313;DHT22;4194;43.408;24.626;2022-08-19T19:45:29;28.10;60.50